First I — 3ESJ5 — position and weather

sailwx.info

Track history (hours):
 
Tides and Currents Weather Stations Pressure Air Temp Water Temp Dewpoint Dewpoint Depression Visibility Wind Speed Wind Dir Waves Ship Positions

First I

Last reported at 2018-Apr-07 22:15 UTC. Time now 2018-Apr-26 20:56 UTC.
Position N 20°02' E 066°36'.
Warning: this ship's position is 18 days out of date.

Length 190 m; draft 12.9 m.

Type: Cargo ship. MMSI: 370317000.

Date/timePositionNaut miles runAvg speedWind from/ knotsBaromVisibWave heightAir tempDewpointWater temp
2018-Apr-07 22:15N 20°02' E 066°36'311.7
2018-Apr-07 22:00N 19°59' E 066°36'611.7
2018-Apr-07 21:30N 19°53' E 066°35'611.4
2018-Apr-07 20:58N 19°47' E 066°35'611.3
2018-Apr-07 20:29N 19°41' E 066°35'611.2
2018-Apr-07 19:57N 19°35' E 066°34'2010.9
2018-Apr-07 18:05N 19°15' E 066°33'510.5
2018-Apr-07 17:37N 19°10' E 066°33'110.4
2018-Apr-07 17:30N 19°09' E 066°33'610.3
2018-Apr-07 16:55N 19°03' E 066°32'510.3
2018-Apr-07 16:25N 18°58' E 066°32'510.5
2018-Apr-07 16:00N 18°53' E 066°32'510.5
2018-Apr-07 15:30N 18°48' E 066°32'510.7
2018-Apr-07 15:00N 18°43' E 066°31'510.7
2018-Apr-07 14:30N 18°38' E 066°31'2610.8
2018-Apr-07 12:07N 18°12' E 066°29'111.0
2018-Apr-07 11:59N 18°10' E 066°29'511.0
2018-Apr-07 11:29N 18°05' E 066°28'811.1
2018-Apr-07 10:46N 17°57' E 066°28'311.4
2018-Apr-07 10:30N 17°54' E 066°28'611.5
2018-Apr-07 10:00N 17°48' E 066°28'611.3
2018-Apr-07 09:28N 17°42' E 066°27'9811.5
2018-Apr-07 00:54N 16°04' E 066°21'  
Track history (hours):
 
Tides and Currents Weather Stations Pressure Air Temp Water Temp Dewpoint Dewpoint Depression Visibility Wind Speed Wind Dir Waves Ship Positions

First I

Last reported at 2018-Apr-07 22:15 UTC. Time now 2018-Apr-26 20:56 UTC.
Position N 20°02' E 066°36'.
Warning: this ship's position is 18 days out of date.

Length 190 m; draft 12.9 m.

Type: Cargo ship. MMSI: 370317000.

Date/timePositionNaut miles runAvg speedWind from/ knotsBaromVisibWave heightAir tempDewpointWater temp
2018-Apr-07 22:15N 20°02' E 066°36'311.7
2018-Apr-07 22:00N 19°59' E 066°36'611.7
2018-Apr-07 21:30N 19°53' E 066°35'611.4
2018-Apr-07 20:58N 19°47' E 066°35'611.3
2018-Apr-07 20:29N 19°41' E 066°35'611.2
2018-Apr-07 19:57N 19°35' E 066°34'2010.9
2018-Apr-07 18:05N 19°15' E 066°33'510.5
2018-Apr-07 17:37N 19°10' E 066°33'110.4
2018-Apr-07 17:30N 19°09' E 066°33'610.3
2018-Apr-07 16:55N 19°03' E 066°32'510.3
2018-Apr-07 16:25N 18°58' E 066°32'510.5
2018-Apr-07 16:00N 18°53' E 066°32'510.5
2018-Apr-07 15:30N 18°48' E 066°32'510.7
2018-Apr-07 15:00N 18°43' E 066°31'510.7
2018-Apr-07 14:30N 18°38' E 066°31'2610.8
2018-Apr-07 12:07N 18°12' E 066°29'111.0
2018-Apr-07 11:59N 18°10' E 066°29'511.0
2018-Apr-07 11:29N 18°05' E 066°28'811.1
2018-Apr-07 10:46N 17°57' E 066°28'311.4
2018-Apr-07 10:30N 17°54' E 066°28'611.5
2018-Apr-07 10:00N 17°48' E 066°28'611.3
2018-Apr-07 09:28N 17°42' E 066°27'9811.5
2018-Apr-07 00:54N 16°04' E 066°21'  

Dump ship's entire track history